Latest Weather Observations for Gingin Airport

IDW60801

Issued at 5:32 am WST Sunday 26 April 2015 (issued every 30 minutes, with the page automatically refreshed every 10 minutes)

About weather observations | Map of weather stations | Latest weather observations for WA | Other Formats
Station Details ID: 009178 Name: GINGIN AERO Lat: -31.46 Lon: 115.86 Height: 73.0 m
Data from the previous 72 hours. | See also: Recent months at Gingin Airport
Date/Time
WST
Temp
°C
App
Temp
°C
Dew
Point
Rel
Hum
%
Delta-T
°C
Wind Press
QNH
hPa
Press
MSL
hPa
Rain
since 9 am
mm
Dir
 
Spd
km/h
Gust
km/h
Spd
kts
Gust
kts
26/05:30am 11.0 6.9 4.2 63 3.0 E 15 17 8 9 1024.4 1024.2 0.0
26/05:00am 11.5 7.3 4.0 60 3.3 E 15 20 8 11 1024.3 1024.1 0.0
26/04:30am 11.8 7.3 4.3 60 3.4 ESE 17 20 9 11 1024.1 1023.9 0.0
26/04:00am 11.6 6.7 4.3 61 3.3 ESE 19 20 10 11 1024.1 1023.9 0.0
26/03:30am 11.3 7.6 4.3 62 3.2 ESE 13 17 7 9 1024.1 1023.9 0.0
26/03:00am 11.5 7.8 4.5 62 3.2 ESE 13 17 7 9 1024.3 1024.1 0.0
26/02:30am 11.8 8.1 4.3 60 3.4 E 13 15 7 8 1024.2 1024.0 0.0
26/02:00am 12.8 8.7 4.5 57 3.8 ESE 15 19 8 10 1024.3 1024.1 0.0
26/01:30am 13.5 9.0 4.4 54 4.2 E 17 22 9 12 1024.3 1024.1 0.0
26/01:00am 13.8 9.0 4.4 53 4.3 ESE 19 22 10 12 1024.2 1024.0 0.0
26/12:30am 13.5 8.9 3.8 52 4.4 ESE 17 22 9 12 1024.0 1023.8 0.0
26/12:00am 12.8 8.5 3.5 53 4.1 ESE 15 17 8 9 1024.0 1023.8 0.0
 
Date/Time
WST
Temp
°C
App
Temp
°C
Dew
Point
Rel
Hum
%
Delta-T
°C
Wind Press
QNH
hPa
Press
MSL
hPa
Rain
since 9 am
mm
Dir
 
Spd
km/h
Gust
km/h
Spd
kts
Gust
kts
25/11:30pm 13.8 9.1 3.0 48 4.8 ESE 17 20 9 11 1024.2 1024.0 0.0
25/11:00pm 13.2 8.9 3.0 50 4.5 ESE 15 19 8 10 1024.3 1024.1 0.0
25/10:30pm 13.3 8.6 3.1 50 4.6 ESE 17 20 9 11 1024.4 1024.2 0.0
25/10:00pm 12.5 8.1 2.9 52 4.2 SE 15 17 8 9 1024.4 1024.2 0.0
25/09:30pm 12.6 8.3 3.0 52 4.3 SE 15 15 8 8 1024.2 1024.0 0.0
25/09:00pm 12.5 8.5 2.9 52 4.2 SE 13 15 7 8 1024.2 1024.0 0.0
25/08:30pm 13.7 9.8 3.2 49 4.7 ESE 13 13 7 7 1024.1 1023.9 0.0
25/08:00pm 14.5 11.0 3.3 47 5.0 ESE 11 13 6 7 1024.1 1023.9 0.0
25/07:30pm 15.2 11.2 3.0 44 5.5 ESE 13 15 7 8 1023.9 1023.7 0.0
25/07:00pm 16.3 12.7 2.7 40 6.1 ESE 11 13 6 7 1023.5 1023.3 0.0
25/06:30pm 17.8 13.7 2.2 35 7.1 ESE 13 15 7 8 1023.3 1023.1 0.0
25/06:00pm 19.2 14.3 2.1 32 7.8 E 17 26 9 14 1022.9 1022.7 0.0
25/05:30pm 20.4 13.4 1.8 29 8.6 E 28 37 15 20 1022.8 1022.6 0.0
25/05:00pm 21.3 14.8 2.6 29 8.8 ENE 26 32 14 17 1022.6 1022.4 0.0
25/04:30pm 21.8 14.8 2.0 27 9.3 E 28 37 15 20 1022.3 1022.1 0.0
25/04:00pm 22.2 15.2 1.8 26 9.5 ENE 28 37 15 20 1022.3 1022.1 0.0
25/03:30pm 22.4 16.2 2.0 26 9.6 ENE 24 35 13 19 1022.2 1022.0 0.0
25/03:17pm 22.9 16.0 2.4 26 9.7 ENE 28 50 15 27 1022.2 1022.0 0.0
25/03:00pm 22.5 16.7 2.1 26 9.6 E 22 32 12 17 1022.3 1022.1 0.0
25/02:30pm 22.4 16.6 2.5 27 9.4 ENE 22 35 12 19 1022.4 1022.2 0.0
25/02:00pm 22.4 16.0 3.0 28 9.3 E 26 35 14 19 1022.6 1022.4 0.0
25/01:30pm 21.8 15.9 3.9 31 8.7 ENE 24 39 13 21 1023.0 1022.8 0.0
25/01:00pm 21.6 15.3 3.8 31 8.6 E 26 39 14 21 1023.3 1023.1 0.0
25/12:30pm 20.9 14.2 3.6 32 8.3 ENE 28 39 15 21 1023.8 1023.6 0.0
25/12:00pm 20.6 13.9 3.8 33 8.0 ENE 28 41 15 22 1024.3 1024.1 0.0
25/11:30am 20.0 13.4 4.1 35 7.6 NE 28 39 15 21 1024.8 1024.6 0.0
25/11:00am 19.1 12.1 4.1 37 7.1 ENE 30 37 16 20 1025.1 1024.9 0.0
25/10:30am 18.7 11.8 4.8 40 6.7 ENE 30 43 16 23 1025.6 1025.4 0.0
25/10:00am 17.9 11.0 4.8 42 6.3 ENE 30 37 16 20 1025.9 1025.7 0.0
25/09:30am 17.0 10.2 5.3 46 5.6 ENE 30 41 16 22 1026.3 1026.1 0.0
25/09:00am 16.1 10.5 5.4 49 5.1 ENE 24 33 13 18 1026.5 1026.3 0.0
25/08:30am 14.4 8.8 5.2 54 4.3 ENE 24 30 13 16 1026.7 1026.5 0.0
25/08:00am 13.4 8.5 5.1 57 3.8 ENE 20 28 11 15 1026.6 1026.4 0.0
25/07:30am 12.3 7.6 5.0 61 3.3 E 19 26 10 14 1026.3 1026.1 0.0
25/07:00am 11.5 6.5 4.7 63 3.1 E 20 30 11 16 1025.8 1025.6 0.0
25/06:30am 11.6 6.8 4.8 63 3.1 E 19 24 10 13 1025.6 1025.4 0.0
25/06:00am 11.7 6.9 4.7 62 3.2 E 19 26 10 14 1025.3 1025.1 0.0
25/05:30am 12.3 7.5 4.8 60 3.4 E 19 24 10 13 1025.3 1025.1 0.0
25/05:00am 12.6 7.3 4.8 59 3.6 E 22 32 12 17 1025.1 1024.9 0.0
25/04:30am 12.9 6.4 4.8 58 3.7 ENE 28 35 15 19 1024.7 1024.5 0.0
25/04:00am 13.2 7.1 4.9 57 3.8 ENE 26 37 14 20 1024.6 1024.4 0.0
25/03:30am 13.7 8.0 4.8 55 4.1 ENE 24 32 13 17 1024.7 1024.5 0.0
25/03:00am 14.1 7.6 4.9 54 4.3 ENE 28 39 15 21 1024.5 1024.3 0.0
25/02:42am 14.1 7.7 5.2 55 4.2 E 28 46 15 25 1024.5 1024.3 0.0
25/02:30am 14.1 7.7 5.2 55 4.2 E 28 39 15 21 1024.4 1024.2 0.0
25/02:00am 14.3 7.5 5.1 54 4.3 E 30 35 16 19 1024.5 1024.3 0.0
25/01:46am 14.4 8.0 5.2 54 4.3 E 28 46 15 25 1024.6 1024.4 0.0
25/01:30am 14.7 7.9 5.2 53 4.5 E 30 46 16 25 1024.5 1024.3 0.0
25/01:00am 14.5 8.1 5.3 54 4.3 ENE 28 39 15 21 1024.7 1024.5 0.0
25/12:30am 14.7 8.7 5.2 53 4.5 E 26 33 14 18 1024.8 1024.6 0.0
25/12:00am 14.6 9.0 5.4 54 4.3 E 24 30 13 16 1025.0 1024.8 0.0
 
Date/Time
WST
Temp
°C
App
Temp
°C
Dew
Point
Rel
Hum
%
Delta-T
°C
Wind Press
QNH
hPa
Press
MSL
hPa
Rain
since 9 am
mm
Dir
 
Spd
km/h
Gust
km/h
Spd
kts
Gust
kts
24/11:30pm 15.0 8.7 5.5 53 4.5 E 28 41 15 22 1025.1 1024.9 0.0
24/11:00pm 15.0 7.9 5.5 53 4.5 E 32 43 17 23 1025.2 1025.0 0.0
24/10:30pm 14.8 9.7 5.9 55 4.3 E 22 28 12 15 1025.4 1025.2 0.0
24/10:00pm 14.5 10.7 5.8 56 4.1 ESE 15 20 8 11 1025.8 1025.6 0.0
24/09:30pm 14.8 10.3 5.9 55 4.3 ESE 19 26 10 14 1025.7 1025.5 0.0
24/09:00pm 14.0 10.0 5.1 55 4.1 ESE 15 19 8 10 1025.7 1025.5 0.0
24/08:30pm 13.4 10.1 4.6 55 4.1 SE 11 17 6 9 1025.6 1025.4 0.0
24/08:00pm 14.6 11.7 4.6 51 4.6 ESE 9 13 5 7 1025.4 1025.2 0.0
24/07:30pm 15.1 11.5 4.8 50 4.8 ESE 13 17 7 9 1025.2 1025.0 0.0
24/07:00pm 16.0 12.0 4.7 47 5.3 SE 15 20 8 11 1024.8 1024.6 0.0
24/06:30pm 17.2 12.8 4.5 43 6.0 ESE 17 20 9 11 1024.8 1024.6 0.0
24/06:00pm 18.0 13.1 4.2 40 6.5 ESE 19 24 10 13 1024.7 1024.5 0.0
24/05:30pm 18.9 13.3 3.5 36 7.3 ESE 22 32 12 17 1024.7 1024.5 0.0
24/05:00pm 19.8 13.5 3.5 34 7.7 E 26 37 14 20 1024.5 1024.3 0.0
24/04:30pm 20.3 14.3 3.5 33 8.0 ESE 24 32 13 17 1024.4 1024.2 0.0
24/04:00pm 20.3 14.0 3.5 33 8.0 ESE 26 35 14 19 1024.4 1024.2 0.0
24/03:30pm 20.2 13.5 3.4 33 8.0 E 28 35 15 19 1024.4 1024.2 0.0
24/03:00pm 20.3 13.6 3.5 33 8.0 E 28 39 15 21 1024.4 1024.2 0.0
24/02:30pm 20.3 14.3 3.1 32 8.1 E 24 35 13 19 1024.6 1024.4 0.0
24/02:00pm 20.2 13.8 3.0 32 8.1 E 26 37 14 20 1024.8 1024.6 0.0
24/01:30pm 20.4 13.5 2.7 31 8.3 E 28 39 15 21 1025.0 1024.8 0.0
24/01:00pm 19.1 12.6 2.9 34 7.5 E 26 37 14 20 1025.6 1025.4 0.0
24/12:30pm 19.8 13.1 3.5 34 7.7 ENE 28 39 15 21 1026.0 1025.8 0.0
24/12:00pm 19.2 12.1 3.4 35 7.4 E 30 43 16 23 1026.4 1026.2 0.0
24/11:30am 18.3 10.8 3.4 37 7.0 E 32 44 17 24 1026.7 1026.5 0.0
24/11:00am 17.7 9.7 3.9 40 6.5 E 35 48 19 26 1026.9 1026.7 0.0
24/10:30am 16.9 8.6 4.3 43 5.9 E 37 50 20 27 1027.4 1027.2 0.0
24/10:00am 15.9 8.7 4.9 48 5.2 E 32 43 17 23 1027.9 1027.7 0.0
24/09:30am 15.0 6.4 4.7 50 4.8 E 39 52 21 28 1028.1 1027.9 0.0
24/09:00am 14.2 6.9 4.5 52 4.5 E 32 46 17 25 1028.4 1028.2 0.0
24/08:30am 13.1 5.2 4.5 56 4.0 E 35 43 19 23 1028.6 1028.5 0.0
24/08:00am 13.0 7.4 5.2 59 3.6 E 24 43 13 23 1028.6 1028.5 0.0
24/07:30am 11.7 6.1 5.3 65 3.0 E 24 28 13 15 1028.2 1028.0 0.0
24/07:00am 11.3 6.5 5.4 67 2.7 E 20 30 11 16 1027.7 1027.5 0.0
24/06:30am 11.0 7.1 5.3 68 2.6 E 15 26 8 14 1027.3 1027.1 0.0
24/06:00am 10.9 7.0 5.2 68 2.6 E 15 22 8 12 1026.6 1026.4 0.0
24/05:30am 11.3 6.7 5.4 67 2.7 E 19 26 10 14 1026.5 1026.3 0.0
24/05:00am 11.8 6.6 5.7 66 2.8 ESE 22 33 12 18 1026.4 1026.2 0.0
24/04:30am 12.0 6.5 6.1 67 2.8 E 24 33 13 18 1026.2 1026.0 0.0
24/04:00am 12.1 6.7 6.2 67 2.8 E 24 39 13 21 1026.1 1025.9 0.0
24/03:30am 12.2 7.6 6.7 69 2.6 ESE 20 26 11 14 1026.0 1025.8 0.0
24/03:00am 12.6 8.1 6.9 68 2.7 ESE 20 28 11 15 1026.0 1025.8 0.0
24/02:30am 13.1 7.5 7.1 67 2.9 ESE 26 39 14 21 1025.9 1025.7 0.0
24/02:00am 13.5 8.1 7.9 69 2.8 ESE 26 33 14 18 1026.0 1025.8 0.0
24/01:30am 14.1 8.4 8.3 68 2.9 ESE 28 39 15 21 1026.2 1026.0 0.0
24/01:00am 14.6 9.8 9.0 69 2.8 ESE 24 39 13 21 1026.1 1025.9 0.0
24/12:30am 15.3 9.4 9.2 67 3.1 E 30 43 16 23 1026.2 1026.0 0.0
24/12:00am 15.9 9.4 9.1 64 3.5 ESE 33 44 18 24 1026.0 1025.8 0.0
 
Date/Time
WST
Temp
°C
App
Temp
°C
Dew
Point
Rel
Hum
%
Delta-T
°C
Wind Press
QNH
hPa
Press
MSL
hPa
Rain
since 9 am
mm
Dir
 
Spd
km/h
Gust
km/h
Spd
kts
Gust
kts
23/11:30pm 16.4 11.9 8.6 60 4.0 ESE 22 30 12 16 1025.6 1025.4 0.0
23/11:00pm 16.8 12.6 8.2 57 4.4 ESE 20 33 11 18 1025.2 1025.0 0.0
23/10:30pm 17.3 13.1 8.2 55 4.7 ESE 20 30 11 16 1025.1 1024.9 0.0
23/10:00pm 17.9 13.3 8.2 53 5.0 ESE 22 32 12 17 1025.0 1024.8 0.0
23/09:30pm 17.8 14.1 8.1 53 5.0 ESE 17 26 9 14 1024.7 1024.5 0.0
23/09:00pm 17.8 14.5 8.1 53 4.9 ESE 15 20 8 11 1024.5 1024.3 0.0
23/08:30pm 18.0 14.8 8.6 54 4.9 ESE 15 19 8 10 1024.2 1024.0 0.0
23/08:00pm 17.9 15.3 9.3 57 4.5 SE 13 17 7 9 1024.0 1023.8 0.0
23/07:30pm 18.8 16.2 9.3 54 5.0 SE 13 17 7 9 1023.7 1023.5 0.0
23/07:00pm 19.7 16.7 9.3 51 5.5 SE 15 19 8 10 1023.6 1023.4 0.0
23/06:30pm 20.9 17.2 9.5 48 6.1 SE 19 26 10 14 1023.2 1023.0 0.0
23/06:00pm 21.4 18.2 9.9 48 6.2 ESE 17 22 9 12 1022.8 1022.6 0.0
23/05:30pm 22.6 18.5 10.1 45 6.8 ESE 22 33 12 18 1022.3 1022.1 0.0
23/05:00pm 23.7 18.9 8.9 39 7.9 ESE 24 32 13 17 1022.1 1021.9 0.0
23/04:30pm 24.2 19.2 9.4 39 8.1 ESE 26 32 14 17 1021.9 1021.7 0.0
23/04:00pm 25.4 21.3 8.8 35 9.0 SE 20 28 11 15 1021.6 1021.4 0.0
23/03:30pm 25.5 21.4 8.5 34 9.2 SE 20 32 11 17 1021.6 1021.4 0.0
23/03:00pm 25.5 21.6 8.5 34 9.2 ESE 19 30 10 16 1021.5 1021.3 0.0
23/02:30pm 25.7 21.1 8.2 33 9.4 E 22 30 12 16 1021.5 1021.3 0.0
23/02:00pm 25.6 21.7 8.6 34 9.2 E 19 30 10 16 1021.3 1021.1 0.0
23/01:30pm 25.1 20.2 8.6 35 8.9 E 24 32 13 17 1021.5 1021.3 0.0
23/01:00pm 24.7 19.4 8.6 36 8.6 ESE 26 35 14 19 1021.8 1021.6 0.0
23/12:30pm 24.9 21.0 9.6 38 8.4 ESE 20 30 11 16 1022.1 1021.9 0.0
23/12:00pm 23.8 19.3 8.6 38 8.1 ESE 22 33 12 18 1022.4 1022.2 0.0
23/11:30am 22.8 17.8 8.1 39 7.8 ESE 24 32 13 17 1022.7 1022.5 0.0
23/11:00am 21.6 17.3 9.5 46 6.5 ESE 22 28 12 15 1022.9 1022.7 0.0
23/10:30am 20.7 16.5 9.6 49 6.0 ESE 22 30 12 16 1023.1 1022.9 0.0
23/10:00am 20.0 15.4 9.6 51 5.5 E 24 32 13 17 1023.1 1022.9 0.0
23/09:30am 19.1 14.1 9.6 54 5.0 E 26 32 14 17 1023.1 1022.9 0.0
23/09:00am 18.2 13.9 9.3 56 4.7 ESE 22 28 12 15 1023.1 1022.9 0.0
23/08:30am 17.3 13.5 9.2 59 4.2 ESE 19 26 10 14 1022.8 1022.6 0.0
23/08:00am 15.8 14.1 9.9 68 3.1 ESE 9 13 5 7 1022.3 1022.1 0.0
23/07:30am 13.7 11.7 10.1 79 1.9 ESE 11 13 6 7 1021.7 1021.5 0.0
23/07:00am 11.6 9.4 9.5 87 1.1 ESE 11 13 6 7 1021.3 1021.1 0.0
23/06:30am 11.2 9.4 9.6 90 0.8 SE 9 11 5 6 1021.0 1020.8 0.0
23/06:00am 10.6 8.4 9.5 93 0.6 SE 11 13 6 7 1020.9 1020.7 0.0

Other Formats:

Comma delimited format used in spreadsheet applications
http://www.bom.gov.au/fwo/IDW60801/IDW60801.95612.axf

JavaScript Object Notation format (JSON) in row-major order
http://www.bom.gov.au/fwo/IDW60801/IDW60801.95612.json